Latest Weather Observations for Gabo Island

IDN60801

Issued at 7:03 pm EDT Tuesday 28 February 2017 (issued every 30 minutes, with the page automatically refreshed every 10 minutes)

About weather observations | Map of weather stations | Latest weather observations for NSW | Other Formats
Station Details ID: 084016 Name: GABO ISLAND LIGHTHOUSE Lat: -37.57 Lon: 149.92 Height: 15.2 m
Data from the previous 72 hours. | See also: Recent months at Gabo Island
Date/Time
EDT
Temp
°C
App
Temp
°C
Dew
Point
°C
Rel
Hum
%
Delta-T
°C
Wind Press
QNH
hPa
Press
MSL
hPa
Rain since
9am
mm
Dir  Spd
km/h
Gust
km/h
Spd
kts
Gust
kts
28/07:00pm 21.9 18.0 19.5 86 1.5 NE 39 50 21 27 1021.3 - 0.0
28/06:30pm 22.2 17.8 19.4 84 1.8 NE 41 52 22 28 1021.1 - 0.0
28/06:00pm 22.2 17.6 19.7 86 1.6 NE 43 46 23 25 1021.2 1021.1 0.0
28/05:30pm 22.6 19.6 19.8 84 1.8 NE 35 43 19 23 1021.4 - 0.0
28/05:00pm 22.8 20.1 19.7 83 2.0 NE 33 39 18 21 1021.5 - 0.0
28/04:30pm 22.9 20.3 19.8 83 2.0 NE 33 37 18 20 1021.8 - 0.0
28/04:00pm 23.0 20.3 19.7 82 2.1 NE 33 39 18 21 1021.7 - 0.0
28/03:30pm 22.9 19.0 19.6 81 2.1 NE 39 43 21 23 1021.7 - 0.0
28/03:00pm 23.2 19.7 19.6 80 2.3 NE 37 41 20 22 1022.1 1022.0 0.0
28/02:30pm 23.0 20.3 19.6 81 2.2 NE 33 39 18 21 1022.4 - 0.0
28/02:00pm 22.8 20.2 19.8 83 1.9 NE 33 37 18 20 1022.5 - 0.0
28/01:30pm 22.9 20.1 19.4 80 2.2 NE 33 37 18 20 1022.7 - 0.0
28/01:00pm 22.8 20.0 19.5 81 2.1 NE 33 39 18 21 1022.8 - 0.0
28/12:30pm 22.9 20.1 19.4 80 2.2 NE 33 37 18 20 1023.1 - 0.0
28/12:00pm 22.8 19.9 19.2 80 2.3 NE 33 37 18 20 1023.3 1023.2 0.0
28/11:30am 22.5 19.8 19.2 81 2.1 NE 32 35 17 19 1023.6 - 0.0
28/11:00am 22.0 19.5 18.8 82 2.0 NE 30 35 16 19 1023.7 - 0.0
28/10:30am 21.9 20.1 18.7 82 2.0 NE 26 30 14 16 1023.8 - 0.0
28/10:00am 21.8 21.0 18.4 81 2.1 NE 20 24 11 13 1024.0 - 0.0
28/09:30am 22.0 21.9 18.8 82 2.0 NE 17 20 9 11 1023.9 - 0.0
28/09:00am 21.0 20.9 18.8 87 1.4 NE 17 19 9 10 1023.8 1023.7 0.0
28/08:30am 20.4 20.8 19.0 92 0.9 NE 15 17 8 9 1023.7 - 0.0
28/08:00am 19.8 20.9 18.8 94 0.6 NNE 11 13 6 7 1023.6 - 0.0
28/07:30am 19.3 20.6 18.5 95 0.5 NNE 9 11 5 6 1023.5 - 0.0
28/07:00am 18.9 20.6 18.1 95 0.5 NNE 6 9 3 5 1023.3 - 0.0
28/06:30am 19.0 20.5 18.0 94 0.6 N 7 9 4 5 1022.9 - 0.0
28/06:00am 19.5 20.5 18.7 95 0.5 N 11 13 6 7 1022.9 1022.8 0.0
28/05:30am 19.9 20.6 18.9 94 0.6 N 13 15 7 8 1022.7 - 0.0
28/05:00am 20.2 20.8 19.4 95 0.5 NNE 15 20 8 11 1022.8 - 0.0
28/04:30am 20.2 20.8 19.4 95 0.5 NNE 15 17 8 9 1022.8 - 0.0
28/04:00am 20.2 19.9 19.2 94 0.6 NE 19 22 10 12 1022.8 - 0.0
28/03:30am 20.3 19.8 19.0 92 0.8 NNE 20 24 11 13 1023.1 - 0.0
28/03:00am 19.8 20.4 18.7 93 0.7 NNE 13 17 7 9 1023.4 1023.4 0.0
28/02:30am 19.5 20.4 18.4 93 0.7 NNE 11 15 6 8 1023.8 - 0.0
28/02:00am 19.4 20.3 18.4 94 0.6 NNE 11 15 6 8 1024.0 - 0.0
28/01:30am 18.9 20.0 17.9 94 0.6 N 9 11 5 6 1024.4 - 0.0
28/01:00am 19.3 19.7 18.2 93 0.7 NNE 13 15 7 8 1024.5 - 0.0
28/12:30am 19.2 19.6 18.1 93 0.7 NNE 13 15 7 8 1024.6 - 0.0
28/12:00am 19.5 19.7 18.5 94 0.6 NNE 15 17 8 9 1024.7 1024.6 0.0
 
Date/Time
EDT
Temp
°C
App
Temp
°C
Dew
Point
°C
Rel
Hum
%
Delta-T
°C
Wind Press
QNH
hPa
Press
MSL
hPa
Rain since
9am
mm
Dir  Spd
km/h
Gust
km/h
Spd
kts
Gust
kts
27/11:30pm 19.7 19.9 18.6 93 0.7 NNE 15 19 8 10 1024.9 - 0.0
27/11:00pm 19.9 19.7 18.4 91 0.9 NNE 17 20 9 11 1025.0 - 0.0
27/10:30pm 20.1 18.6 18.5 90 1.0 NNE 24 26 13 14 1025.1 - 0.0
27/10:00pm 20.2 17.9 18.4 89 1.1 NE 28 32 15 17 1025.1 - 0.0
27/09:30pm 20.4 17.6 18.3 88 1.3 NE 30 35 16 19 1024.9 - 0.0
27/09:00pm 20.3 17.4 17.9 86 1.5 NE 30 35 16 19 1024.8 1024.7 0.0
27/08:30pm 20.3 17.4 17.9 86 1.5 NE 30 33 16 18 1024.7 - 0.0
27/08:00pm 20.4 16.9 17.5 83 1.8 NE 32 37 17 20 1024.5 - 0.0
27/07:30pm 20.5 16.4 17.4 82 1.9 NE 35 41 19 22 1024.2 - 0.0
27/07:00pm 20.5 16.2 17.0 80 2.1 NE 35 43 19 23 1023.9 - 0.0
27/06:30pm 20.9 16.6 16.8 77 2.5 NE 35 39 19 21 1023.9 - 0.0
27/06:00pm 21.0 16.9 16.0 73 3.0 NE 32 37 17 20 1023.9 1023.9 0.0
27/05:30pm 21.4 17.9 16.4 73 3.0 NE 30 33 16 18 1024.1 - 0.0
27/05:00pm 21.5 17.5 16.2 72 3.2 NE 32 35 17 19 1024.1 - 0.0
27/04:30pm 21.6 18.1 16.5 73 3.1 NE 30 33 16 18 1024.2 - 0.0
27/04:00pm 22.1 18.5 16.3 69 3.5 NE 30 33 16 18 1024.4 - 0.0
27/03:30pm 22.2 17.9 15.3 65 4.1 NE 32 37 17 20 1024.5 - 0.0
27/03:00pm 22.5 18.3 15.6 65 4.1 NE 32 35 17 19 1024.8 1024.7 0.0
27/02:30pm 22.4 18.0 15.1 63 4.3 NE 32 35 17 19 1025.2 - 0.0
27/02:00pm 22.4 18.0 15.1 63 4.3 NE 32 35 17 19 1025.5 - 0.0
27/01:30pm 22.7 18.5 15.7 64 4.2 NE 32 35 17 19 1025.7 - 0.0
27/01:00pm 22.3 17.8 15.0 63 4.3 NE 32 35 17 19 1025.8 - 0.0
27/12:30pm 22.3 17.8 15.0 63 4.3 NE 32 35 17 19 1026.2 - 0.0
27/12:00pm 22.2 18.1 14.9 63 4.3 NE 30 33 16 18 1026.4 1026.3 0.0
27/11:30am 22.0 17.4 14.5 62 4.4 NE 32 35 17 19 1026.6 - 0.0
27/11:00am 21.3 16.9 14.2 64 4.1 NE 30 35 16 19 1026.8 - 0.0
27/10:30am 21.0 16.4 14.7 67 3.7 NE 32 35 17 19 1026.7 - 0.0
27/10:00am 20.5 15.9 14.5 68 3.5 NE 32 35 17 19 1026.8 - 0.0
27/09:30am 20.2 15.1 13.7 66 3.7 NE 33 39 18 21 1026.6 - 0.0
27/09:00am 20.0 14.4 13.3 65 3.8 NE 35 41 19 22 1026.3 1026.2 0.0
27/08:30am 19.8 14.4 13.9 69 3.4 NE 35 39 19 21 1026.2 - 0.0
27/08:00am 19.7 14.3 13.9 69 3.3 NE 35 39 19 21 1026.0 - 0.0
27/07:30am 19.6 13.9 14.2 71 3.1 NE 37 43 20 23 1025.5 - 0.0
27/07:00am 19.7 14.3 13.9 69 3.3 NE 35 41 19 22 1025.3 - 0.0
27/06:30am 19.7 14.8 14.3 71 3.1 NE 33 41 18 22 1024.8 - 0.0
27/06:00am 19.6 13.8 13.8 69 3.3 ENE 37 43 20 23 1024.5 1024.4 0.0
27/05:30am 19.6 14.9 14.8 74 2.8 ENE 33 39 18 21 1024.4 - 0.0
27/05:00am 19.7 14.5 14.5 72 3.0 ENE 35 41 19 22 1024.2 - 0.0
27/04:30am 19.9 15.2 14.4 70 3.2 NE 32 37 17 20 1024.4 - 0.0
27/04:00am 19.7 15.5 14.7 73 2.9 NE 30 35 16 19 1024.6 - 0.0
27/03:30am 19.8 14.6 14.6 72 3.0 NE 35 41 19 22 1024.5 - 0.0
27/03:00am 19.8 14.3 14.6 72 3.0 NE 37 44 20 24 1024.8 1024.7 0.0
27/02:30am 19.8 14.5 15.2 75 2.7 NE 37 44 20 24 1024.7 - 0.0
27/02:00am 19.8 14.1 15.2 75 2.7 NE 39 44 21 24 1024.7 - 0.0
27/01:30am 19.8 14.7 15.9 78 2.3 NE 37 43 20 23 1024.9 - 0.0
27/01:00am 19.8 15.3 15.4 76 2.6 NE 33 41 18 22 1025.0 - 0.0
27/12:30am 18.8 16.5 16.6 87 1.3 NNE 24 32 13 17 1025.3 - 0.0
27/12:00am 19.6 17.4 16.8 84 1.7 NE 24 28 13 15 1025.3 1025.2 0.0
 
Date/Time
EDT
Temp
°C
App
Temp
°C
Dew
Point
°C
Rel
Hum
%
Delta-T
°C
Wind Press
QNH
hPa
Press
MSL
hPa
Rain since
9am
mm
Dir  Spd
km/h
Gust
km/h
Spd
kts
Gust
kts
26/11:30pm 19.8 16.3 16.6 82 1.9 ENE 30 37 16 20 1025.6 - 0.0
26/11:00pm 19.8 17.6 15.9 78 2.3 ENE 22 30 12 16 1025.7 - 0.0
26/10:30pm 19.7 17.0 15.6 77 2.4 ENE 24 30 13 16 1025.8 - 0.0
26/10:00pm 19.5 16.6 15.0 75 2.6 ENE 24 30 13 16 1025.8 - 0.0
26/09:30pm 19.4 17.2 14.9 75 2.6 ENE 20 24 11 13 1025.8 - 0.0
26/09:00pm 19.2 15.9 14.1 72 2.9 ENE 24 26 13 14 1025.6 1025.5 0.0
26/08:30pm 19.4 15.8 14.2 72 3.0 ENE 26 30 14 16 1025.5 - 0.0
26/08:00pm 19.1 15.1 13.1 68 3.4 ENE 26 32 14 17 1025.3 - 0.0
26/07:30pm 19.1 14.9 12.4 65 3.7 ENE 26 32 14 17 1025.2 - 0.0
26/07:00pm 19.2 15.1 11.3 60 4.3 ENE 24 30 13 16 1025.0 - 0.0
26/06:30pm 19.4 15.0 10.5 56 4.8 ENE 24 30 13 16 1024.9 - 0.0
26/06:00pm 19.6 14.9 10.5 55 4.9 ENE 26 30 14 16 1024.7 1024.6 0.0
26/05:30pm 19.8 14.8 9.6 51 5.4 ENE 26 30 14 16 1024.5 - 0.0
26/05:00pm 20.0 15.3 9.4 50 5.6 ENE 24 30 13 16 1024.5 - 0.0
26/04:30pm 20.3 15.9 10.3 52 5.4 ENE 24 30 13 16 1024.6 - 0.0
26/04:00pm 20.5 16.5 10.3 52 5.5 ENE 22 26 12 14 1024.7 - 0.0
26/03:30pm 20.7 16.8 9.6 49 5.9 E 20 24 11 13 1024.8 - 0.0
26/03:00pm 20.5 16.6 9.4 49 5.9 ENE 20 24 11 13 1025.0 1024.9 0.0
26/02:30pm 20.7 17.1 9.9 50 5.8 ENE 19 20 10 11 1025.1 - 0.0
26/02:00pm 21.1 18.7 11.3 53 5.4 ESE 15 20 8 11 1025.6 - 0.0
26/01:30pm 20.9 18.3 10.6 51 5.6 E 15 20 8 11 1025.6 - 0.0
26/01:00pm 20.3 17.6 10.3 52 5.4 E 15 17 8 9 1025.7 - 0.0
26/12:30pm 20.4 17.0 9.2 48 5.9 ENE 17 20 9 11 1025.9 - 0.0
26/12:00pm 20.6 17.3 9.7 49 5.8 ENE 17 20 9 11 1025.9 1025.8 0.0
26/11:30am 20.2 16.3 9.4 50 5.7 E 20 26 11 14 1026.0 - 0.0
26/11:00am 20.0 15.8 9.6 51 5.5 E 22 28 12 15 1025.9 - 0.0
26/10:30am 19.7 15.8 9.5 51 5.4 E 20 28 11 15 1026.3 - 0.0
26/10:00am 19.5 15.4 8.7 49 5.6 E 20 30 11 16 1026.2 - 0.0
26/09:30am 19.4 15.5 9.3 52 5.3 E 20 26 11 14 1025.8 - 0.0
26/09:00am 18.9 14.6 9.4 54 5.0 E 22 30 12 16 1025.5 1025.4 2.4
26/08:30am 18.9 15.4 8.9 52 5.2 E 17 22 9 12 1025.4 - 2.4
26/08:00am 18.3 14.6 9.5 56 4.6 E 19 24 10 13 1025.4 - 2.4
26/07:30am 17.5 13.5 9.2 58 4.3 E 20 26 11 14 1025.1 - 2.4
26/07:00am 17.8 13.9 9.4 58 4.4 ESE 20 26 11 14 1024.8 - 2.4
26/06:30am 17.7 13.9 9.2 57 4.4 E 19 26 10 14 1024.5 - 2.4
26/06:00am 17.7 14.1 9.9 60 4.1 E 19 24 10 13 1024.1 - 2.4
26/05:30am 17.6 13.9 10.2 62 3.9 E 20 26 11 14 1023.8 - 2.4
26/05:00am 17.3 13.9 11.2 67 3.3 E 20 24 11 13 1023.5 - 2.4
26/04:30am 18.1 14.3 9.7 58 4.4 E 20 26 11 14 1023.5 - 2.4
26/04:00am 18.0 14.8 9.8 58 4.3 E 17 24 9 13 1023.7 - 2.4
26/03:30am 18.0 14.3 10.3 60 4.1 E 20 28 11 15 1023.9 - 2.4
26/03:00am 18.1 14.2 10.8 62 3.9 E 22 28 12 15 1024.0 1023.9 2.4
26/02:30am 18.4 14.6 11.2 63 3.9 E 22 26 12 14 1024.0 - 2.4
26/02:00am 18.4 15.0 11.2 63 3.9 E 20 26 11 14 1024.2 - 2.4
26/01:30am 18.5 15.1 11.3 63 3.9 E 20 26 11 14 1024.3 - 2.4
26/01:00am 18.5 15.1 11.1 62 4.0 E 20 28 11 15 1024.6 - 2.4
26/12:30am 18.6 15.5 12.1 66 3.6 E 20 24 11 13 1024.9 - 2.4
26/12:00am 18.6 15.1 11.0 61 4.1 E 20 26 11 14 1025.0 1024.9 2.4
 
Date/Time
EDT
Temp
°C
App
Temp
°C
Dew
Point
°C
Rel
Hum
%
Delta-T
°C
Wind Press
QNH
hPa
Press
MSL
hPa
Rain since
9am
mm
Dir  Spd
km/h
Gust
km/h
Spd
kts
Gust
kts
25/11:30pm 18.5 14.6 10.7 60 4.2 E 22 30 12 16 1025.0 - 2.4
25/11:00pm 18.4 14.6 11.0 62 4.0 E 22 30 12 16 1025.0 - 2.4
25/10:30pm 18.5 14.2 10.7 60 4.2 ESE 24 30 13 16 1025.1 - 2.4
25/10:00pm 18.6 15.1 12.1 66 3.6 ESE 22 30 12 16 1025.0 - 2.4
25/09:30pm 18.4 14.2 11.2 63 3.9 ESE 24 30 13 16 1024.9 - 2.4
25/09:00pm 18.5 13.9 10.9 61 4.1 ESE 26 35 14 19 1024.7 1024.6 2.4
25/08:30pm 18.5 13.7 11.5 63 3.8 ESE 28 35 15 19 1024.5 - 2.4
25/08:00pm 18.5 13.8 11.9 65 3.6 ESE 28 35 15 19 1024.3 - 2.4
25/07:30pm 18.3 13.0 11.1 63 3.9 ESE 30 39 16 21 1023.7 - 2.4

Other Formats:

Comma delimited format used in spreadsheet applications
http://www.bom.gov.au/fwo/IDN60801/IDN60801.94933.axf

JavaScript Object Notation format (JSON) in row-major order
http://www.bom.gov.au/fwo/IDN60801/IDN60801.94933.json